Time;durP1;ratioP1;P1;durP2;ratioP2;P2;SDS_P1;SDS_P2;PMS_P1;PMS_P2;Temp;Humidity;BMP_temperature;BMP_pressure;BME280_temperature;BME280_humidity;BME280_pressure;Samples;Min_cycle;Max_cycle;Signal;HPM_P1;HPM_P2
2022/03/04 00:01:38;;;;;;;23.33;11.07;;;;;;;0.18;59.09;100050.13;12201395;19;20014;-81
2022/03/04 00:05:40;;;;;;;26.10;11.38;;;;;;;0.08;59.21;100046.78;12180026;19;20010;-82
2022/03/04 00:09:42;;;;;;;26.55;11.35;;;;;;;-0.01;59.10;100043.25;12210669;19;20081;-82
2022/03/04 00:13:43;;;;;;;21.98;10.55;;;;;;;-0.07;59.30;100047.50;12238777;19;20025;-82
2022/03/04 00:17:45;;;;;;;21.15;11.40;;;;;;;-0.12;59.37;100047.22;12252124;19;20006;-82
2022/03/04 00:21:49;;;;;;;22.55;11.02;;;;;;;-0.15;59.54;100047.56;12252520;19;20002;-82
2022/03/04 00:25:51;;;;;;;26.77;10.93;;;;;;;-0.17;60.33;100055.00;12230044;19;20006;-82
2022/03/04 00:29:52;;;;;;;24.08;11.75;;;;;;;-0.18;60.65;100052.44;12214205;19;20066;-80
2022/03/04 00:33:54;;;;;;;23.67;11.05;;;;;;;-0.19;62.52;100054.31;12199972;19;20002;-81
2022/03/04 00:37:56;;;;;;;25.42;12.13;;;;;;;-0.17;62.64;100057.72;12177408;19;20124;-80
2022/03/04 00:41:58;;;;;;;24.40;11.65;;;;;;;-0.17;62.44;100057.72;12209704;19;20416;-79
2022/03/04 00:46:00;;;;;;;26.60;12.17;;;;;;;-0.14;64.19;100061.94;12203294;19;20018;-78
2022/03/04 00:50:02;;;;;;;27.87;12.67;;;;;;;-0.11;63.88;100056.19;12178562;19;20107;-79
2022/03/04 00:54:04;;;;;;;24.40;12.23;;;;;;;-0.14;64.77;100056.53;12197564;19;20031;-80
2022/03/04 00:58:07;;;;;;;22.75;11.00;;;;;;;-0.18;64.68;100050.59;12203599;19;20346;-80
2022/03/04 01:02:08;;;;;;;28.00;13.93;;;;;;;-0.21;64.19;100058.22;12184798;19;20014;-79
2022/03/04 01:06:10;;;;;;;25.67;12.50;;;;;;;-0.27;62.74;100047.09;12204859;19;20006;-81
2022/03/04 01:10:12;;;;;;;24.67;12.18;;;;;;;-0.30;63.19;100046.56;12203084;19;20014;-81
2022/03/04 01:14:14;;;;;;;30.27;13.57;;;;;;;-0.32;63.84;100043.22;12182624;19;20086;-80
2022/03/04 01:18:17;;;;;;;26.97;13.53;;;;;;;-0.26;63.30;100047.94;12210442;19;20022;-81
2022/03/04 01:22:18;;;;;;;28.95;13.75;;;;;;;-0.24;62.52;100045.88;12206596;19;20074;-81
2022/03/04 01:26:20;;;;;;;28.08;13.55;;;;;;;-0.24;62.33;100032.31;12179717;19;20362;-81
2022/03/04 01:30:22;;;;;;;27.43;14.27;;;;;;;-0.21;62.93;100031.13;12201474;19;20132;-81
2022/03/04 01:34:24;;;;;;;27.92;14.10;;;;;;;-0.19;62.95;100032.66;12201034;19;20021;-81
2022/03/04 01:38:25;;;;;;;29.02;13.32;;;;;;;-0.18;63.32;100023.50;12186131;19;20493;-81
2022/03/04 01:42:27;;;;;;;28.10;14.50;;;;;;;-0.16;63.46;100023.34;12205540;19;20552;-81
2022/03/04 01:46:30;;;;;;;33.90;15.73;;;;;;;-0.10;63.08;100026.19;12200033;19;20505;-81
2022/03/04 01:50:32;;;;;;;29.45;14.13;;;;;;;-0.09;62.94;100032.44;12175311;19;20002;-80
2022/03/04 01:54:34;;;;;;;25.23;14.15;;;;;;;-0.03;62.75;100026.31;12187332;19;20082;-81
2022/03/04 01:58:35;;;;;;;28.63;14.35;;;;;;;0.03;62.76;100022.06;12202571;19;20048;-80
2022/03/04 02:02:39;;;;;;;32.65;15.90;;;;;;;0.05;62.91;100017.31;12181202;19;20017;-80
2022/03/04 02:06:41;;;;;;;35.90;14.77;;;;;;;-0.01;62.81;100027.00;12198263;19;20017;-79
2022/03/04 02:10:42;;;;;;;30.38;14.98;;;;;;;-0.02;63.12;100022.63;12177930;19;20532;-80
2022/03/04 02:14:44;;;;;;;30.48;14.55;;;;;;;-0.02;62.71;100028.88;12188283;19;20023;-80
2022/03/04 02:18:46;;;;;;;29.50;14.68;;;;;;;0.03;63.27;100024.78;12195077;19;20015;-80
2022/03/04 02:22:49;;;;;;;28.67;13.32;;;;;;;0.03;63.03;100019.34;12177747;19;20024;-81
2022/03/04 02:26:53;;;;;;;25.85;12.80;;;;;;;-0.07;62.63;100031.25;12202405;19;20019;-80
2022/03/04 02:30:55;;;;;;;32.47;14.15;;;;;;;-0.25;63.32;100033.34;12208719;19;20405;-80
2022/03/04 02:34:57;;;;;;;29.00;14.43;;;;;;;-0.44;63.64;100029.19;12192052;19;20014;-81
2022/03/04 02:38:59;;;;;;;32.30;14.88;;;;;;;-0.62;64.41;100029.41;12214215;19;20111;-79
2022/03/04 02:43:01;;;;;;;33.50;14.52;;;;;;;-0.76;64.85;100035.50;12215954;19;20101;-79
2022/03/04 02:47:03;;;;;;;29.75;14.90;;;;;;;-0.89;65.57;100030.63;12183027;19;20006;-80
2022/03/04 02:51:06;;;;;;;26.23;13.88;;;;;;;-1.00;65.49;100036.38;12203968;19;20233;-81
2022/03/04 02:55:11;;;;;;;31.35;13.52;;;;;;;-1.06;66.60;100034.34;12204270;19;20003;-80
2022/03/04 02:59:13;;;;;;;29.08;13.68;;;;;;;-1.17;67.45;100032.81;12191801;19;20024;-79
2022/03/04 03:03:15;;;;;;;30.75;15.82;;;;;;;-1.24;69.23;100023.69;12209681;19;20011;-80
2022/03/04 03:07:16;;;;;;;26.27;14.70;;;;;;;-1.26;70.09;100031.13;12212546;19;20011;-80
2022/03/04 03:11:19;;;;;;;28.57;13.63;;;;;;;-1.31;71.73;100031.66;12180465;19;20015;-81
2022/03/04 03:15:21;;;;;;;33.87;14.77;;;;;;;-1.35;71.15;100024.88;12209193;19;20082;-79
2022/03/04 03:19:22;;;;;;;31.13;13.95;;;;;;;-1.41;71.44;100029.09;12208712;19;20006;-79
2022/03/04 03:23:24;;;;;;;29.33;14.90;;;;;;;-1.46;71.22;100023.34;12179118;19;20070;-80
2022/03/04 03:27:25;;;;;;;29.42;13.82;;;;;;;-1.52;72.79;100025.84;12205329;19;20114;-80
2022/03/04 03:31:27;;;;;;;28.42;13.73;;;;;;;-1.51;73.18;100014.88;12207680;19;20074;-80
2022/03/04 03:35:29;;;;;;;34.03;15.25;;;;;;;-1.59;71.81;100017.56;12183141;19;20070;-81
2022/03/04 03:39:31;;;;;;;29.38;12.98;;;;;;;-1.66;71.51;100016.56;12200651;19;20073;-79
2022/03/04 03:43:32;;;;;;;31.75;13.82;;;;;;;-1.70;71.88;100024.13;12195838;19;20086;-79
2022/03/04 03:47:34;;;;;;;30.00;14.35;;;;;;;-1.77;72.25;100022.28;12188408;19;20589;-80
2022/03/04 03:51:36;;;;;;;33.30;14.13;;;;;;;-1.80;72.23;100025.31;12203922;19;20584;-80
2022/03/04 03:55:38;;;;;;;28.70;14.60;;;;;;;-1.83;71.74;100030.00;12206114;19;20284;-79
2022/03/04 03:59:39;;;;;;;38.17;15.98;;;;;;;-1.82;72.41;100028.16;12176160;19;20017;-79
2022/03/04 04:03:41;;;;;;;32.60;15.95;;;;;;;-1.76;71.68;100032.06;12201534;19;20050;-79
2022/03/04 04:07:43;;;;;;;35.70;15.27;;;;;;;-1.76;71.96;100037.47;12186397;19;20117;-80
2022/03/04 04:11:45;;;;;;;40.00;16.38;;;;;;;-1.76;71.83;100034.75;12203623;19;20105;-78
2022/03/04 04:15:46;;;;;;;32.80;15.30;;;;;;;-1.74;73.25;100043.56;12196826;19;20017;-80
2022/03/04 04:19:48;;;;;;;37.50;16.80;;;;;;;-1.61;72.06;100052.00;12184797;19;20031;-80
2022/03/04 04:23:50;;;;;;;37.33;17.23;;;;;;;-1.51;71.60;100041.06;12199210;19;20470;-80
2022/03/04 04:27:52;;;;;;;32.27;16.37;;;;;;;-1.42;72.45;100043.63;12201706;19;20010;-79
2022/03/04 04:31:53;;;;;;;37.10;14.98;;;;;;;-1.35;72.97;100051.06;12179851;19;20731;-79
2022/03/04 04:35:55;;;;;;;34.08;16.50;;;;;;;-1.30;72.39;100056.81;12199780;19;20352;-80
2022/03/04 04:39:57;;;;;;;36.17;17.63;;;;;;;-1.23;72.36;100050.56;12202424;19;20026;-80
2022/03/04 04:43:58;;;;;;;34.40;16.55;;;;;;;-1.10;71.99;100057.31;12182971;19;20023;-80
2022/03/04 04:48:00;;;;;;;34.67;16.42;;;;;;;-1.03;71.21;100056.50;12196843;19;20476;-80
2022/03/04 04:52:05;;;;;;;34.45;15.90;;;;;;;-1.00;72.06;100050.75;12198598;19;20014;-79
2022/03/04 04:56:07;;;;;;;34.00;16.13;;;;;;;-0.97;71.67;100050.41;12179262;19;20126;-80
2022/03/04 05:00:09;;;;;;;34.80;17.35;;;;;;;-0.94;71.99;100054.63;12199666;19;20555;-79
2022/03/04 05:04:11;;;;;;;33.90;17.53;;;;;;;-0.95;71.63;100061.91;12200383;19;20067;-80
2022/03/04 05:08:12;;;;;;;37.72;19.02;;;;;;;-0.94;72.01;100054.63;12179178;19;20068;-79
2022/03/04 05:12:14;;;;;;;35.65;17.88;;;;;;;-0.91;72.08;100059.69;12200001;19;20560;-80
2022/03/04 05:16:17;;;;;;;;;;;;;;;-0.86;72.31;100059.19;12201639;19;20591;-81
2022/03/04 05:20:18;;;;;;;32.30;16.58;;;;;;;-0.83;72.83;100058.84;12182306;19;19926;-80
2022/03/04 05:24:20;;;;;;;37.63;17.02;;;;;;;-0.79;72.13;100062.91;12201883;19;20078;-80
2022/03/04 05:28:22;;;;;;;39.88;17.85;;;;;;;-0.71;71.58;100050.22;12198033;19;20027;-80
2022/03/04 05:32:23;;;;;;;38.33;17.10;;;;;;;-0.65;73.66;100053.28;12180146;19;20010;-81
2022/03/04 05:36:26;;;;;;;36.92;17.17;;;;;;;-0.58;72.26;100057.81;12197136;19;19999;-81
2022/03/04 05:40:28;;;;;;;35.50;17.58;;;;;;;-0.52;72.45;100056.28;12204390;19;20014;-81
2022/03/04 05:44:29;;;;;;;30.75;16.45;;;;;;;-0.46;71.74;100059.13;12173462;19;20509;-81
2022/03/04 05:48:32;;;;;;;41.13;16.53;;;;;;;-0.48;71.86;100063.91;12213604;19;20099;-82
2022/03/04 05:52:34;;;;;;;43.80;17.48;;;;;;;-0.45;71.51;100068.09;12204718;19;20026;-81
2022/03/04 05:56:36;;;;;;;40.38;17.90;;;;;;;-0.45;71.73;100065.38;12176306;19;20074;-80
2022/03/04 06:00:37;;;;;;;40.28;18.45;;;;;;;-0.47;72.90;100080.97;12197315;19;20039;-80
2022/03/04 06:04:40;;;;;;;41.05;18.48;;;;;;;-0.47;72.42;100078.28;12186475;19;20370;-82
2022/03/04 06:08:42;;;;;;;40.47;17.95;;;;;;;-0.49;72.55;100080.28;12206545;19;20011;-80
2022/03/04 06:12:43;;;;;;;34.80;19.13;;;;;;;-0.48;72.84;100093.69;12217891;19;20014;-80
2022/03/04 06:16:45;;;;;;;37.65;18.83;;;;;;;-0.51;72.90;100099.41;12179195;19;20019;-80
2022/03/04 06:20:46;;;;;;;35.55;19.08;;;;;;;-0.49;72.44;100110.91;12219072;19;20082;-80
2022/03/04 06:24:48;;;;;;;35.88;18.38;;;;;;;-0.49;72.40;100110.06;12202235;19;20111;-78
2022/03/04 06:28:50;;;;;;;37.33;17.48;;;;;;;-0.54;73.42;100117.84;12200368;19;20006;-80
2022/03/04 06:33:29;;;;;;;37.60;18.38;;;;;;;-0.53;72.99;100125.81;12219619;19;20421;-79
2022/03/04 06:37:18;;;;;;;39.25;19.98;;;;;;;-0.51;73.28;100129.19;12205048;19;20021;-80
2022/03/04 06:41:21;;;;;;;;;;;;;;;-0.46;73.43;100128.69;12187187;19;20006;-80
2022/03/04 06:45:23;;;;;;;38.83;18.02;;;;;;;-0.41;73.00;100137.16;12206493;19;19914;-80
2022/03/04 06:49:24;;;;;;;41.08;19.05;;;;;;;-0.36;72.80;100144.75;12183152;19;20043;-79
2022/03/04 06:53:27;;;;;;;37.67;19.05;;;;;;;-0.32;73.50;100146.09;12192008;19;20731;-79
2022/03/04 06:57:28;;;;;;;39.38;19.42;;;;;;;-0.26;72.92;100151.69;12199192;19;20371;-80
2022/03/04 07:01:30;;;;;;;42.42;17.27;;;;;;;-0.20;73.03;100152.00;12218710;19;20010;-79
2022/03/04 07:05:32;;;;;;;41.38;18.25;;;;;;;-0.15;73.12;100144.19;12190360;19;20014;-80
2022/03/04 07:09:34;;;;;;;38.00;18.05;;;;;;;-0.04;72.57;100152.81;12215339;19;20867;-79
2022/03/04 07:13:36;;;;;;;36.50;18.13;;;;;;;0.04;73.39;100161.94;12209396;19;20117;-79
2022/03/04 07:17:38;;;;;;;40.13;20.00;;;;;;;0.16;72.48;100169.53;12187124;19;20734;-79
2022/03/04 07:21:39;;;;;;;42.17;20.42;;;;;;;0.26;72.86;100176.63;12210196;19;20367;-79
2022/03/04 07:25:42;;;;;;;37.75;18.95;;;;;;;0.41;71.98;100181.13;12186979;19;20014;-79
2022/03/04 07:29:43;;;;;;;43.35;20.75;;;;;;;0.56;71.42;100193.97;12211976;19;20015;-79
2022/03/04 07:33:46;;;;;;;42.72;20.42;;;;;;;0.63;71.49;100201.22;12213885;19;20064;-80
2022/03/04 07:37:49;;;;;;;;;;;;;;;0.73;70.92;100195.59;12190100;19;20014;-79
2022/03/04 07:41:51;;;;;;;43.92;18.58;;;;;;;0.82;70.50;100210.81;12208487;19;19978;-79
2022/03/04 07:46:01;;;;;;;44.30;20.08;;;;;;;0.92;70.57;100210.56;12212358;19;20006;-80
2022/03/04 07:50:08;;;;;;;39.80;19.95;;;;;;;1.07;70.35;100207.94;12191993;19;20360;-80
2022/03/04 07:54:10;;;;;;;39.35;19.80;;;;;;;1.20;69.96;100201.97;12210668;19;20003;-80
2022/03/04 07:58:12;;;;;;;42.78;20.00;;;;;;;1.36;69.76;100199.97;12204682;19;20427;-80
2022/03/04 08:02:14;;;;;;;44.90;21.00;;;;;;;1.54;69.18;100204.25;12184909;19;20027;-79
2022/03/04 08:06:16;;;;;;;42.90;20.00;;;;;;;1.76;68.19;100208.81;12208324;19;20006;-80
2022/03/04 08:10:20;;;;;;;46.15;21.67;;;;;;;1.96;67.70;100205.59;12212755;19;20007;-80
2022/03/04 08:14:23;;;;;;;43.33;20.73;;;;;;;2.13;67.25;100206.28;12187062;19;20046;-79
2022/03/04 08:18:25;;;;;;;49.13;22.23;;;;;;;2.35;66.73;100205.38;12207335;19;20429;-79
2022/03/04 08:22:27;;;;;;;40.03;21.03;;;;;;;2.55;66.10;100210.25;12210558;19;20006;-79
2022/03/04 08:26:29;;;;;;;43.63;21.63;;;;;;;2.65;65.34;100205.38;12184307;19;20247;-80
2022/03/04 08:30:35;;;;;;;37.80;19.83;;;;;;;2.75;63.92;100211.34;12196673;19;20098;-78
2022/03/04 08:34:37;;;;;;;42.13;21.25;;;;;;;3.02;64.08;100212.53;12220045;19;20006;-80
2022/03/04 08:38:39;;;;;;;39.15;21.80;;;;;;;3.18;63.01;100223.22;12200171;19;20404;-80
2022/03/04 08:42:42;;;;;;;42.37;22.43;;;;;;;3.36;62.52;100225.50;12212257;19;20010;-80
2022/03/04 08:46:47;;;;;;;41.88;22.58;;;;;;;3.56;62.17;100228.44;12198558;19;20279;-80
2022/03/04 08:50:49;;;;;;;40.20;20.63;;;;;;;3.76;61.34;100230.53;12217114;19;20335;-80
2022/03/04 08:54:51;;;;;;;48.25;22.63;;;;;;;3.95;60.81;100223.53;12225765;19;20271;-80
2022/03/04 08:58:53;;;;;;;41.65;20.95;;;;;;;4.11;60.35;100223.28;12197805;19;20014;-79
2022/03/04 09:02:56;;;;;;;48.50;23.25;;;;;;;4.24;59.92;100230.72;12218153;19;20005;-80
2022/03/04 09:06:58;;;;;;;46.05;22.13;;;;;;;4.36;59.08;100244.66;12221165;19;20002;-80
2022/03/04 09:10:59;;;;;;;42.33;21.83;;;;;;;4.49;58.95;100245.59;12206097;19;20007;-80
2022/03/04 09:15:03;;;;;;;44.58;21.45;;;;;;;4.64;58.73;100231.84;12222305;19;20009;-80
2022/03/04 09:19:07;;;;;;;46.35;22.65;;;;;;;4.57;58.13;100237.22;12223008;19;20017;-80
2022/03/04 09:23:09;;;;;;;30.60;16.43;;;;;;;4.72;58.54;100237.09;12211176;19;20003;-80
2022/03/04 09:27:11;;;;;;;41.43;22.73;;;;;;;4.87;58.03;100242.44;12219987;19;20006;-80
2022/03/04 09:31:13;;;;;;;48.67;23.63;;;;;;;4.96;57.23;100234.94;12218772;19;20007;-80
2022/03/04 09:35:33;;;;;;;49.03;22.48;;;;;;;5.15;56.90;100236.06;12205134;19;20003;-80
2022/03/04 09:39:44;;;;;;;50.08;21.75;;;;;;;5.21;56.61;100227.06;12231599;19;20017;-80
2022/03/04 09:43:49;;;;;;;44.33;22.00;;;;;;;5.42;56.18;100229.66;12219376;19;20380;-80
2022/03/04 09:47:51;;;;;;;42.88;21.92;;;;;;;5.53;55.61;100227.34;12242196;19;20480;-81
2022/03/04 09:51:52;;;;;;;42.53;22.08;;;;;;;5.69;54.94;100225.06;12235243;19;20017;-81
2022/03/04 09:55:54;;;;;;;45.33;23.27;;;;;;;5.80;54.58;100223.63;12209031;19;20014;-80
2022/03/04 09:59:56;;;;;;;46.28;21.92;;;;;;;6.05;54.73;100226.63;12229459;19;20010;-80
2022/03/04 10:03:58;;;;;;;45.03;22.02;;;;;;;6.25;53.61;100220.31;12239790;19;20488;-81
2022/03/04 10:08:00;;;;;;;47.63;23.55;;;;;;;6.28;53.71;100220.72;12208320;19;20000;-80
2022/03/04 10:12:04;;;;;;;41.08;23.15;;;;;;;6.38;53.54;100212.91;12237197;19;20010;-80
2022/03/04 10:16:08;;;;;;;46.00;23.00;;;;;;;6.37;52.12;100219.44;12223189;19;20006;-81
2022/03/04 10:20:14;;;;;;;44.20;21.88;;;;;;;6.28;52.45;100211.66;12202629;19;20492;-81
2022/03/04 10:24:18;;;;;;;45.83;24.35;;;;;;;6.50;52.67;100220.47;12230810;19;20007;-81
2022/03/04 10:28:28;;;;;;;43.92;22.17;;;;;;;6.76;52.37;100225.06;12229957;19;20010;-81
2022/03/04 10:32:32;;;;;;;39.20;21.60;;;;;;;6.81;51.35;100228.84;12202817;19;20086;-80
2022/03/04 10:36:34;;;;;;;42.70;22.48;;;;;;;6.92;51.34;100229.22;12233263;19;20010;-81
2022/03/04 10:40:43;;;;;;;44.45;23.80;;;;;;;7.09;50.93;100213.97;12228032;19;20010;-81
2022/03/04 10:44:45;;;;;;;43.38;23.80;;;;;;;7.22;50.76;100208.44;12202856;19;20043;-78
2022/03/04 10:48:55;;;;;;;43.88;20.77;;;;;;;7.15;48.86;100217.75;12225861;19;20018;-81
2022/03/04 10:53:14;;;;;;;41.75;21.85;;;;;;;7.26;49.44;100215.19;12209951;19;20010;-81
2022/03/04 10:57:21;;;;;;;43.80;23.17;;;;;;;7.27;48.11;100211.38;12225409;19;20007;-81
2022/03/04 11:01:26;;;;;;;41.42;22.25;;;;;;;7.39;48.62;100205.19;12212899;19;20006;-81
2022/03/04 11:05:28;;;;;;;44.05;23.13;;;;;;;7.71;48.89;100195.09;12213773;19;20381;-81
2022/03/04 11:09:32;;;;;;;42.05;21.05;;;;;;;7.84;47.95;100194.97;12227362;19;20002;-81
2022/03/04 11:13:37;;;;;;;45.30;22.35;;;;;;;8.10;47.09;100182.94;12230923;19;20011;-81
2022/03/04 11:17:39;;;;;;;44.20;22.35;;;;;;;8.31;46.97;100187.19;12187070;19;20460;-82
2022/03/04 11:21:41;;;;;;;46.75;22.95;;;;;;;8.31;46.46;100195.44;12236239;19;20038;-80
2022/03/04 11:25:45;;;;;;;44.20;22.95;;;;;;;8.35;45.56;100182.09;12251914;19;20613;-81
2022/03/04 11:29:47;;;;;;;40.63;21.75;;;;;;;8.56;45.16;100181.69;12267402;19;20055;-81
2022/03/04 11:33:49;;;;;;;40.25;21.05;;;;;;;8.65;44.54;100179.47;12203322;19;20019;-82
2022/03/04 11:37:51;;;;;;;38.78;21.63;;;;;;;8.75;44.26;100173.47;12222727;19;20010;-81
2022/03/04 11:41:53;;;;;;;29.77;16.55;;;;;;;8.83;43.92;100182.25;12223081;19;20006;-81
2022/03/04 11:46:04;;;;;;;39.63;20.83;;;;;;;9.00;43.78;100179.69;12199655;19;20007;-81
2022/03/04 11:50:26;;;;;;;44.78;21.38;;;;;;;8.93;42.40;100183.63;12211537;19;20674;-81
2022/03/04 11:54:29;;;;;;;44.20;21.75;;;;;;;9.18;42.30;100169.75;12187980;19;19999;-81
2022/03/04 11:58:54;;;;;;;44.10;22.58;;;;;;;9.48;42.08;100173.34;12213607;19;20077;-81
2022/03/04 12:03:00;;;;;;;37.92;21.20;;;;;;;10.05;41.96;100172.88;12218928;19;20013;-82
2022/03/04 12:07:11;;;;;;;39.35;21.13;;;;;;;10.56;39.55;100159.50;12207784;19;20049;-82
2022/03/04 12:11:23;;;;;;;33.88;21.02;;;;;;;10.91;39.24;100163.03;12224341;19;20020;-82
2022/03/04 12:15:45;;;;;;;36.88;22.35;;;;;;;11.76;39.26;100155.00;12219632;19;20014;-81
2022/03/04 12:19:48;;;;;;;51.38;23.92;;;;;;;11.95;37.56;100153.69;12225454;19;20007;-82
2022/03/04 12:23:59;;;;;;;36.72;21.20;;;;;;;11.88;35.38;100152.22;12212021;19;20357;-82
2022/03/04 12:28:20;;;;;;;33.92;21.27;;;;;;;12.46;35.93;100148.13;12191725;19;20042;-82
2022/03/04 12:32:27;;;;;;;32.22;20.45;;;;;;;12.95;36.35;100139.97;12215008;19;20108;-83
2022/03/04 12:36:31;;;;;;;32.85;20.30;;;;;;;13.30;34.79;100138.75;12190449;19;20084;-84
2022/03/04 12:40:39;;;;;;;35.53;23.02;;;;;;;12.98;34.59;100131.97;12218093;19;20009;-83
2022/03/04 12:44:41;;;;;;;35.58;22.30;;;;;;;13.22;35.13;100124.22;12215505;19;20472;-83
2022/03/04 12:48:43;;;;;;;36.53;22.75;;;;;;;13.81;34.73;100125.41;12196039;19;20019;-83
2022/03/04 12:52:45;;;;;;;36.15;21.45;;;;;;;14.49;33.21;100126.47;12226696;19;20498;-83
2022/03/04 12:57:01;;;;;;;36.65;24.30;;;;;;;14.96;33.48;100120.09;12217891;19;20014;-82
2022/03/04 13:01:04;;;;;;;38.83;24.05;;;;;;;14.85;32.15;100115.59;12190052;19;20006;-83
2022/03/04 13:05:06;;;;;;;30.42;21.65;;;;;;;15.21;32.14;100113.78;12206379;19;20007;-82
2022/03/04 13:09:10;;;;;;;31.48;21.13;;;;;;;15.21;31.18;100112.94;12217131;19;19998;-83
2022/03/04 13:13:13;;;;;;;31.15;20.02;;;;;;;15.46;30.60;100110.22;12192447;19;20003;-82
2022/03/04 13:17:16;;;;;;;29.42;17.48;;;;;;;15.68;29.74;100103.63;12218373;19;20660;-82
2022/03/04 13:21:41;;;;;;;29.23;19.70;;;;;;;15.88;29.00;100095.31;12191928;19;20040;-83
2022/03/04 13:25:44;;;;;;;27.40;19.15;;;;;;;15.05;28.36;100089.88;12211182;19;20007;-83
2022/03/04 13:29:58;;;;;;;32.17;20.60;;;;;;;13.12;30.90;100096.47;12217066;19;20010;-83
2022/03/04 13:34:28;;;;;;;29.80;17.55;;;;;;;12.27;30.78;100082.09;12205153;19;20010;-81
2022/03/04 13:38:31;;;;;;;31.58;19.13;;;;;;;12.18;32.02;100091.91;12212887;19;20006;-82
2022/03/04 13:42:43;;;;;;;27.77;17.60;;;;;;;11.74;31.77;100082.63;12195217;19;20018;-82
2022/03/04 13:47:06;;;;;;;30.58;18.58;;;;;;;11.47;32.38;100074.16;12218216;19;20003;-82
2022/03/04 13:51:11;;;;;;;31.95;17.38;;;;;;;11.68;32.79;100076.19;12218115;19;20014;-82
2022/03/04 13:55:13;;;;;;;31.25;18.80;;;;;;;11.35;33.49;100063.22;12186045;19;20023;-83
2022/03/04 13:59:16;;;;;;;29.30;16.65;;;;;;;11.09;33.84;100075.69;12225481;19;20011;-82
2022/03/04 14:03:23;;;;;;;26.15;16.17;;;;;;;10.51;34.18;100076.72;12206559;19;20006;-82
2022/03/04 14:07:39;;;;;;;30.80;17.33;;;;;;;10.24;34.59;100079.97;12222226;19;20014;-80
2022/03/04 14:11:41;;;;;;;31.57;17.23;;;;;;;10.19;35.00;100072.44;12237491;19;20024;-81
2022/03/04 14:15:44;;;;;;;;;;;;;;;10.01;35.47;100078.91;12205990;19;20010;-82
2022/03/04 14:19:46;;;;;;;32.35;17.20;;;;;;;10.09;35.45;100074.13;12218584;19;19945;-81
2022/03/04 14:23:47;;;;;;;31.60;17.27;;;;;;;9.89;35.59;100069.81;12213404;19;20010;-80
2022/03/04 14:27:56;;;;;;;27.48;15.18;;;;;;;9.89;35.88;100075.31;12208819;19;20014;-81
2022/03/04 14:31:58;;;;;;;30.67;16.50;;;;;;;9.84;35.55;100075.19;12233937;19;20406;-81
2022/03/04 14:36:00;;;;;;;32.80;16.52;;;;;;;9.67;35.58;100055.81;12229095;19;20377;-81
2022/03/04 14:40:07;;;;;;;27.98;15.23;;;;;;;9.65;35.50;100062.63;12217357;19;20034;-81
2022/03/04 14:44:09;;;;;;;28.50;15.05;;;;;;;9.68;35.97;100062.16;12227753;19;20042;-81
2022/03/04 14:48:11;;;;;;;27.30;15.03;;;;;;;9.82;35.88;100069.94;12234355;19;20011;-80
2022/03/04 14:52:13;;;;;;;25.70;13.70;;;;;;;9.98;35.72;100075.78;12188118;19;20011;-80
2022/03/04 14:56:15;;;;;;;25.77;13.90;;;;;;;10.06;34.92;100064.44;12213748;19;20017;-81
2022/03/04 15:00:23;;;;;;;29.58;15.63;;;;;;;10.03;35.01;100056.66;12204015;19;20443;-80
2022/03/04 15:04:29;;;;;;;24.98;14.70;;;;;;;10.05;35.40;100062.72;12212866;19;20010;-80
2022/03/04 15:08:31;;;;;;;25.35;13.85;;;;;;;10.23;34.68;100064.50;12226327;19;20006;-81
2022/03/04 15:12:51;;;;;;;26.13;14.20;;;;;;;10.83;34.37;100057.84;12204230;19;20010;-81
2022/03/04 15:16:53;;;;;;;24.73;14.73;;;;;;;11.21;34.25;100050.81;12231784;19;20105;-81
2022/03/04 15:20:55;;;;;;;27.13;15.00;;;;;;;11.34;33.71;100048.56;12237695;19;20567;-81
2022/03/04 15:24:58;;;;;;;27.25;14.70;;;;;;;11.39;34.07;100048.69;12207770;19;20011;-81
2022/03/04 15:29:00;;;;;;;27.08;15.82;;;;;;;11.38;33.56;100052.50;12221568;19;20017;-80
2022/03/04 15:33:01;;;;;;;28.48;14.48;;;;;;;11.44;33.72;100049.84;12226863;19;20055;-81
2022/03/04 15:37:03;;;;;;;27.50;15.68;;;;;;;10.91;32.93;100054.66;12213213;19;20022;-80
2022/03/04 15:41:22;;;;;;;26.77;14.80;;;;;;;10.97;33.98;100052.84;12236111;19;20011;-81
2022/03/04 15:45:24;;;;;;;25.35;14.10;;;;;;;10.56;34.12;100050.13;12214872;19;20070;-80
2022/03/04 15:49:27;;;;;;;28.30;14.75;;;;;;;10.31;34.60;100055.09;12237821;19;20010;-81
2022/03/04 15:53:29;;;;;;;26.98;14.10;;;;;;;9.90;34.69;100057.72;12236358;19;20010;-81
2022/03/04 15:57:32;;;;;;;28.47;14.83;;;;;;;9.52;35.47;100048.03;12203143;19;20007;-80
2022/03/04 16:01:34;;;;;;;23.25;12.73;;;;;;;9.29;35.78;100051.56;12232682;19;20016;-81
2022/03/04 16:05:36;;;;;;;27.33;13.80;;;;;;;9.24;35.77;100048.66;12234280;19;20019;-80
2022/03/04 16:09:38;;;;;;;23.38;12.65;;;;;;;9.13;36.03;100052.22;12218079;19;22243;-80
2022/03/04 16:13:44;;;;;;;26.95;12.63;;;;;;;8.97;36.26;100053.72;12235606;19;20014;-80
2022/03/04 16:17:46;;;;;;;23.52;12.70;;;;;;;8.86;36.47;100055.38;12232845;19;20022;-80
2022/03/04 16:21:48;;;;;;;21.80;12.18;;;;;;;8.69;36.94;100054.34;12220513;19;20018;-80
2022/03/04 16:25:50;;;;;;;25.20;13.20;;;;;;;8.50;37.20;100055.41;12224950;19;20003;-80
2022/03/04 16:29:52;;;;;;;27.65;13.23;;;;;;;8.37;37.24;100059.13;12226221;19;20017;-80
2022/03/04 16:34:00;;;;;;;30.52;14.13;;;;;;;8.29;37.57;100057.53;12202393;19;20006;-80
2022/03/04 16:38:03;;;;;;;29.20;14.00;;;;;;;8.12;38.33;100065.53;12223004;19;20011;-80
2022/03/04 16:42:06;;;;;;;28.63;15.45;;;;;;;7.88;39.20;100058.19;12222911;19;20472;-81
2022/03/04 16:46:08;;;;;;;27.33;13.30;;;;;;;7.71;39.60;100069.75;12198342;19;20490;-80
2022/03/04 16:50:30;;;;;;;32.97;16.48;;;;;;;7.53;40.04;100066.94;12217757;19;20010;-80
2022/03/04 16:54:32;;;;;;;30.50;15.88;;;;;;;7.28;40.43;100070.50;12206320;19;20003;-80
2022/03/04 16:58:34;;;;;;;38.80;17.90;;;;;;;6.96;42.71;100063.34;12222701;19;19999;-80
2022/03/04 17:02:36;;;;;;;35.38;16.98;;;;;;;6.77;42.45;100070.63;12225576;19;20011;-80
2022/03/04 17:06:38;;;;;;;35.13;17.52;;;;;;;6.47;43.75;100073.91;12202410;19;20011;-80
2022/03/04 17:10:40;;;;;;;31.30;17.15;;;;;;;6.22;43.64;100087.47;12224785;19;20010;-80
2022/03/04 17:14:44;;;;;;;38.53;17.70;;;;;;;5.96;45.09;100084.81;12237543;19;20368;-81
2022/03/04 17:18:46;;;;;;;33.88;17.00;;;;;;;5.71;46.57;100086.28;12220071;19;20018;-81
2022/03/04 17:22:48;;;;;;;33.42;17.05;;;;;;;5.56;45.50;100085.66;12236594;19;20010;-80
2022/03/04 17:26:50;;;;;;;67.47;32.03;;;;;;;5.31;47.41;100095.50;12218783;19;20654;-80
2022/03/04 17:30:52;;;;;;;138.52;57.47;;;;;;;5.12;48.12;100086.25;12192370;19;20002;-81
2022/03/04 17:34:55;;;;;;;87.53;52.58;;;;;;;4.87;48.78;100100.44;12228426;19;19999;-81
2022/03/04 17:38:57;;;;;;;46.80;26.40;;;;;;;4.70;47.99;100112.78;12236095;19;20006;-81
2022/03/04 17:42:59;;;;;;;51.13;25.23;;;;;;;4.52;48.24;100124.25;12199700;19;20010;-81
2022/03/04 17:47:01;;;;;;;42.28;19.40;;;;;;;4.32;48.38;100119.56;12210195;19;20038;-80
2022/03/04 17:51:03;;;;;;;41.83;18.87;;;;;;;4.19;48.49;100122.19;12218549;19;20039;-81
2022/03/04 17:55:06;;;;;;;35.97;16.23;;;;;;;4.07;48.60;100123.78;12205409;19;20239;-81
2022/03/04 17:59:08;;;;;;;48.10;25.17;;;;;;;3.95;49.36;100120.78;12215207;19;20006;-80
2022/03/04 18:03:09;;;;;;;37.05;18.00;;;;;;;3.87;50.02;100126.41;12239578;19;20010;-80
2022/03/04 18:07:12;;;;;;;43.70;17.95;;;;;;;3.76;50.25;100125.06;12202413;19;20006;-80
2022/03/04 18:11:15;;;;;;;48.65;21.70;;;;;;;3.67;50.78;100128.13;12230847;19;20010;-80
2022/03/04 18:15:17;;;;;;;41.25;19.15;;;;;;;3.57;51.87;100142.94;12232763;19;20018;-81
2022/03/04 18:19:19;;;;;;;56.25;28.98;;;;;;;3.49;51.56;100143.06;12212552;19;20002;-81
2022/03/04 18:23:22;;;;;;;45.53;19.20;;;;;;;3.41;52.20;100137.75;12229283;19;20034;-81